createdAt,value
2023-02-02T00:01:20.890Z,25.80
2023-02-02T00:03:50.699Z,25.00
2023-02-02T00:06:18.684Z,17.52
2023-02-02T00:08:46.643Z,18.80
2023-02-02T00:11:15.776Z,16.75
2023-02-02T00:13:43.204Z,28.52
2023-02-02T00:16:36.486Z,23.38
2023-02-02T00:19:06.781Z,30.75
2023-02-02T00:21:34.309Z,25.50
2023-02-02T00:24:01.892Z,20.35
2023-02-02T00:26:30.879Z,22.40
2023-02-02T00:28:58.428Z,21.95
2023-02-02T00:31:25.934Z,24.42
2023-02-02T00:33:53.425Z,25.25
2023-02-02T00:36:21.878Z,28.85
2023-02-02T00:38:50.216Z,27.30
2023-02-02T00:41:18.141Z,21.50
2023-02-02T00:44:09.962Z,26.52
2023-02-02T00:46:40.723Z,23.65
2023-02-02T00:49:08.647Z,29.27
2023-02-02T00:51:36.326Z,23.25
2023-02-02T00:54:04.167Z,22.20
2023-02-02T00:56:31.719Z,24.33
2023-02-02T00:59:00.760Z,31.33
2023-02-02T01:01:28.724Z,22.30
2023-02-02T01:03:56.267Z,28.75
2023-02-02T01:06:24.177Z,24.38
2023-02-02T01:08:51.678Z,27.73
2023-02-02T01:11:19.308Z,24.38
2023-02-02T01:13:46.863Z,20.83
2023-02-02T01:16:15.918Z,27.45
2023-02-02T01:18:45.963Z,24.98
2023-02-02T01:21:13.858Z,23.73
2023-02-02T01:23:41.473Z,23.58
2023-02-02T01:26:10.718Z,19.17
2023-02-02T01:28:38.476Z,28.67
2023-02-02T01:31:08.192Z,21.10
2023-02-02T01:33:37.213Z,20.60
2023-02-02T01:36:06.911Z,23.38
2023-02-02T01:38:43.388Z,15.85
2023-02-02T01:41:13.878Z,19.88
2023-02-02T01:43:54.908Z,20.00
2023-02-02T01:46:24.255Z,18.42
2023-02-02T01:48:56.572Z,19.73
2023-02-02T01:51:28.671Z,22.60
2023-02-02T01:53:57.418Z,31.40
2023-02-02T01:56:29.972Z,25.30
2023-02-02T01:58:58.318Z,26.80
2023-02-02T02:01:26.145Z,27.08
2023-02-02T02:03:55.599Z,25.58
2023-02-02T02:06:25.846Z,20.40
2023-02-02T02:08:55.812Z,30.08
2023-02-02T02:11:24.538Z,20.10
2023-02-02T02:14:10.988Z,19.25
2023-02-02T02:16:52.236Z,22.35
2023-02-02T02:20:03.123Z,25.35
2023-02-02T02:22:54.652Z,33.45
2023-02-02T02:25:56.037Z,31.77
2023-02-02T02:28:39.118Z,27.60
2023-02-02T02:31:33.451Z,31.60
2023-02-02T02:34:04.873Z,32.35
2023-02-02T02:36:37.622Z,22.58
2023-02-02T02:39:08.827Z,26.80
2023-02-02T02:41:41.064Z,26.40
2023-02-02T02:44:11.040Z,39.03
2023-02-02T02:46:39.097Z,26.23
2023-02-02T02:49:10.226Z,26.42
2023-02-02T02:51:43.265Z,24.57
2023-02-02T02:54:11.240Z,27.05
2023-02-02T02:56:45.273Z,33.35
2023-02-02T02:59:19.706Z,28.83
2023-02-02T03:01:52.458Z,29.80
2023-02-02T03:04:24.538Z,20.55
2023-02-02T03:06:55.477Z,19.92
2023-02-02T03:09:24.522Z,24.23
2023-02-02T03:11:52.279Z,24.63
2023-02-02T03:14:19.698Z,30.00
2023-02-02T03:16:47.227Z,24.30
2023-02-02T03:19:14.690Z,19.88
2023-02-02T03:21:43.445Z,21.80
2023-02-02T03:24:10.930Z,25.65
2023-02-02T03:26:38.637Z,17.23
2023-02-02T03:29:06.177Z,27.13
2023-02-02T03:31:33.712Z,30.00
2023-02-02T03:34:01.264Z,19.70
2023-02-02T03:36:28.742Z,24.40
2023-02-02T03:38:57.589Z,17.77
2023-02-02T03:41:26.073Z,21.75
2023-02-02T03:43:53.529Z,19.23
2023-02-02T03:46:21.038Z,22.15
2023-02-02T03:48:48.843Z,16.23
2023-02-02T03:51:16.950Z,23.05
2023-02-02T03:53:47.403Z,19.45
2023-02-02T03:56:17.179Z,15.85
2023-02-02T03:58:53.940Z,22.42
2023-02-02T04:01:27.752Z,14.23
2023-02-02T04:03:55.529Z,13.38
2023-02-02T04:06:23.118Z,13.77
2023-02-02T04:08:50.812Z,17.52
2023-02-02T04:11:19.911Z,12.98
2023-02-02T04:13:47.434Z,11.32
2023-02-02T04:16:15.042Z,14.15
2023-02-02T04:18:42.589Z,14.38
2023-02-02T04:21:10.127Z,16.00
2023-02-02T04:23:37.617Z,16.85
2023-02-02T04:26:05.840Z,11.27
2023-02-02T04:28:34.667Z,18.33
2023-02-02T04:31:02.277Z,10.63
2023-02-02T04:33:29.816Z,14.00
2023-02-02T04:35:57.279Z,15.07
2023-02-02T04:38:24.749Z,14.48
2023-02-02T04:40:52.371Z,14.82
2023-02-02T04:43:19.863Z,17.58
2023-02-02T04:45:48.760Z,6.05
2023-02-02T04:48:16.221Z,15.77
2023-02-02T04:50:43.691Z,13.38
2023-02-02T04:53:11.221Z,12.18
2023-02-02T04:55:38.965Z,9.55
2023-02-02T04:58:07.253Z,11.52
2023-02-02T05:00:34.759Z,12.60
2023-02-02T05:03:03.535Z,11.13
2023-02-02T05:05:31.017Z,17.38
2023-02-02T05:07:59.867Z,13.10
2023-02-02T05:10:27.373Z,9.15
2023-02-02T05:12:55.574Z,14.23
2023-02-02T05:15:23.912Z,11.10
2023-02-02T05:17:51.624Z,9.00
2023-02-02T05:20:20.599Z,13.88
2023-02-02T05:22:49.823Z,12.82
2023-02-02T05:25:17.785Z,16.30
2023-02-02T05:27:45.333Z,12.50
2023-02-02T05:30:14.183Z,15.85
2023-02-02T05:32:41.942Z,13.57
2023-02-02T05:35:11.095Z,17.90
2023-02-02T05:37:39.879Z,17.50
2023-02-02T05:40:08.500Z,14.15
2023-02-02T05:42:35.973Z,17.02
2023-02-02T05:45:03.513Z,13.45
2023-02-02T05:47:31.022Z,9.52
2023-02-02T05:49:58.615Z,14.02
2023-02-02T05:52:26.723Z,14.60
2023-02-02T05:54:55.516Z,19.52
2023-02-02T05:57:23.051Z,12.48
2023-02-02T05:59:50.524Z,15.93
2023-02-02T06:02:18.278Z,15.10
2023-02-02T06:04:45.748Z,11.25
2023-02-02T06:07:13.397Z,9.02
2023-02-02T06:09:41.001Z,11.52
2023-02-02T06:12:09.854Z,14.65
2023-02-02T06:14:37.335Z,11.02
2023-02-02T06:17:04.824Z,17.27
2023-02-02T06:19:32.251Z,14.02
2023-02-02T06:21:59.733Z,7.80
2023-02-02T06:24:27.593Z,17.35
2023-02-02T06:26:55.186Z,11.82
2023-02-02T06:29:24.238Z,10.48
2023-02-02T06:31:51.851Z,15.23
2023-02-02T06:34:19.481Z,13.23
2023-02-02T06:36:46.974Z,9.68
2023-02-02T06:39:14.430Z,17.42
2023-02-02T06:41:41.882Z,13.05
2023-02-02T06:44:09.546Z,12.40
2023-02-02T06:46:38.591Z,20.00
2023-02-02T06:49:06.058Z,21.05
2023-02-02T06:51:33.537Z,17.45
2023-02-02T06:54:01.275Z,11.93
2023-02-02T06:56:28.781Z,17.73
2023-02-02T06:58:56.479Z,15.50
2023-02-02T07:01:24.184Z,15.15
2023-02-02T07:03:53.522Z,15.07
2023-02-02T07:06:23.465Z,22.48
2023-02-02T07:09:01.797Z,18.15
2023-02-02T07:11:30.616Z,16.55
2023-02-02T07:13:58.424Z,17.90
2023-02-02T07:16:25.988Z,18.05
2023-02-02T07:18:54.785Z,18.75
2023-02-02T07:21:25.915Z,14.60
2023-02-02T07:23:53.647Z,29.10
2023-02-02T07:26:21.325Z,18.05
2023-02-02T07:28:48.920Z,16.75
2023-02-02T07:31:17.968Z,17.80
2023-02-02T07:33:46.580Z,20.45
2023-02-02T07:36:17.209Z,12.05
2023-02-02T07:38:45.306Z,21.92
2023-02-02T07:41:13.114Z,14.93
2023-02-02T07:43:40.821Z,23.42
2023-02-02T07:46:10.131Z,22.15
2023-02-02T07:48:38.203Z,16.60
2023-02-02T07:51:08.635Z,21.95
2023-02-02T07:53:37.501Z,17.02
2023-02-02T07:56:09.809Z,21.35
2023-02-02T07:58:37.808Z,21.23
2023-02-02T08:01:06.517Z,19.30
2023-02-02T08:03:34.358Z,18.15
2023-02-02T08:06:02.244Z,17.15
2023-02-02T08:08:29.858Z,15.65
2023-02-02T08:10:58.664Z,25.77
2023-02-02T08:13:26.153Z,14.32
2023-02-02T08:15:53.712Z,19.23
2023-02-02T08:18:21.232Z,22.25
2023-02-02T08:20:49.391Z,14.85
2023-02-02T08:23:16.914Z,10.88
2023-02-02T08:25:44.373Z,21.15
2023-02-02T08:28:13.176Z,19.88
2023-02-02T08:30:40.743Z,13.82
2023-02-02T08:33:08.313Z,16.45
2023-02-02T08:35:35.826Z,17.38
2023-02-02T08:38:05.337Z,23.27
2023-02-02T08:40:32.901Z,16.33
2023-02-02T08:43:00.858Z,13.77
2023-02-02T08:46:14.030Z,13.88
2023-02-02T08:48:17.175Z,17.48
2023-02-02T08:50:44.673Z,14.20
2023-02-02T08:53:12.244Z,12.13
2023-02-02T08:55:39.819Z,9.43
2023-02-02T08:58:07.331Z,14.57
2023-02-02T09:00:36.156Z,8.40
2023-02-02T09:03:03.661Z,12.48
2023-02-02T09:05:31.203Z,15.30
2023-02-02T09:07:58.706Z,10.23
2023-02-02T09:10:26.230Z,9.90
2023-02-02T09:12:53.702Z,9.85
2023-02-02T09:15:21.196Z,9.32
2023-02-02T09:17:50.064Z,10.60
2023-02-02T09:20:20.238Z,9.35
2023-02-02T09:22:47.992Z,13.07
2023-02-02T09:25:15.641Z,13.30
2023-02-02T09:27:43.166Z,11.70
2023-02-02T09:30:11.764Z,11.15
2023-02-02T09:32:39.286Z,13.90
2023-02-02T09:35:08.971Z,7.88
2023-02-02T09:37:36.515Z,10.45
2023-02-02T09:40:04.215Z,14.25
2023-02-02T09:42:39.866Z,12.20
2023-02-02T09:45:09.683Z,11.57
2023-02-02T09:47:53.443Z,8.55
2023-02-02T09:50:32.066Z,15.35
2023-02-02T09:53:02.993Z,14.30
2023-02-02T09:55:34.925Z,18.23
2023-02-02T10:00:33.163Z,18.42
2023-02-02T10:03:02.980Z,9.65
2023-02-02T10:05:41.826Z,11.63
2023-02-02T10:08:09.997Z,12.80
2023-02-02T10:10:42.153Z,12.77
2023-02-02T10:13:14.124Z,13.73
2023-02-02T10:15:45.711Z,15.32
2023-02-02T10:18:19.403Z,8.25
2023-02-02T10:20:51.497Z,11.73
2023-02-02T10:23:25.739Z,11.50
2023-02-02T10:25:58.218Z,14.60
2023-02-02T10:28:37.340Z,10.85
2023-02-02T10:31:05.023Z,12.38
2023-02-02T10:33:38.373Z,13.75
2023-02-02T10:36:13.640Z,12.32
2023-02-02T10:38:45.219Z,12.43
2023-02-02T10:41:19.875Z,8.73
2023-02-02T10:43:57.449Z,11.15
2023-02-02T10:46:27.286Z,15.70
2023-02-02T10:49:02.522Z,14.48
2023-02-02T10:51:31.486Z,10.55
2023-02-02T10:54:01.581Z,13.05
2023-02-02T10:56:32.784Z,17.80
2023-02-02T10:59:02.701Z,9.25
2023-02-02T11:01:30.606Z,13.02
2023-02-02T11:04:15.538Z,15.10
2023-02-02T11:06:50.697Z,10.15
2023-02-02T11:09:20.852Z,11.02
2023-02-02T11:11:52.647Z,8.23
2023-02-02T11:14:29.517Z,13.82
2023-02-02T11:17:04.930Z,11.00
2023-02-02T11:19:33.846Z,14.98
2023-02-02T11:22:04.484Z,9.75
2023-02-02T11:24:39.943Z,14.02
2023-02-02T11:27:14.150Z,10.32
2023-02-02T11:29:44.595Z,13.07
2023-02-02T11:32:20.781Z,11.88
2023-02-02T11:34:48.328Z,11.07
2023-02-02T11:37:22.406Z,6.07
2023-02-02T11:39:50.992Z,8.48
2023-02-02T11:42:22.096Z,9.07
2023-02-02T11:44:51.499Z,11.43
2023-02-02T11:47:21.539Z,7.03
2023-02-02T11:49:51.573Z,7.32
2023-02-02T11:52:23.152Z,11.97
2023-02-02T11:54:51.812Z,13.77
2023-02-02T11:57:22.235Z,9.85
2023-02-02T11:59:50.881Z,7.53
2023-02-02T12:02:25.287Z,8.57
2023-02-02T12:04:54.356Z,11.60
2023-02-02T12:07:27.893Z,8.98
2023-02-02T12:09:58.704Z,7.05
2023-02-02T12:12:43.059Z,6.80
2023-02-02T12:15:23.866Z,8.55
2023-02-02T12:17:53.637Z,7.95
2023-02-02T12:20:33.424Z,8.23
2023-02-02T12:23:21.703Z,9.18
2023-02-02T12:25:56.032Z,7.70
2023-02-02T12:28:35.569Z,8.30
2023-02-02T12:31:10.731Z,11.93
2023-02-02T12:33:40.537Z,8.20
2023-02-02T12:36:22.512Z,4.78
2023-02-02T12:39:01.916Z,5.15
2023-02-02T12:41:40.090Z,5.13
2023-02-02T12:44:12.758Z,8.02
2023-02-02T12:47:01.199Z,5.82
2023-02-02T12:49:53.961Z,15.30
2023-02-02T12:52:31.044Z,7.65
2023-02-02T12:55:24.760Z,5.75
2023-02-02T12:57:58.169Z,12.90
2023-02-02T13:01:03.478Z,10.88
2023-02-02T13:03:40.841Z,5.88
2023-02-02T13:06:41.060Z,16.63
2023-02-02T13:09:12.081Z,14.18
2023-02-02T13:11:45.893Z,12.35
2023-02-02T13:14:16.418Z,7.82
2023-02-02T13:16:48.842Z,15.95
2023-02-02T13:19:22.277Z,22.45
2023-02-02T13:21:51.509Z,18.27
2023-02-02T13:24:30.707Z,26.38
2023-02-02T13:27:02.281Z,12.25
2023-02-02T13:29:35.002Z,11.48
2023-02-02T13:32:18.707Z,16.27
2023-02-02T13:34:49.123Z,13.88
2023-02-02T13:37:19.974Z,13.90
2023-02-02T13:39:50.517Z,14.73
2023-02-02T13:42:25.887Z,17.85
2023-02-02T13:44:58.289Z,16.75
2023-02-02T13:47:30.399Z,15.70
2023-02-02T13:50:01.587Z,16.50
2023-02-02T13:52:52.568Z,9.75
2023-02-02T13:55:40.414Z,7.25
2023-02-02T13:58:28.146Z,11.43
2023-02-02T14:00:58.389Z,13.52
2023-02-02T14:03:33.734Z,16.75
2023-02-02T14:06:06.906Z,9.52
2023-02-02T14:08:34.834Z,12.88
2023-02-02T14:11:05.055Z,7.28
2023-02-02T14:14:00.441Z,12.48
2023-02-02T14:16:55.729Z,9.60
2023-02-02T14:19:49.202Z,7.85
2023-02-02T14:22:22.053Z,7.40
2023-02-02T14:24:51.052Z,9.20
2023-02-02T14:27:56.686Z,7.40
2023-02-02T14:30:36.507Z,6.82
2023-02-02T14:33:25.328Z,6.70
2023-02-02T14:36:00.011Z,11.60
2023-02-02T14:38:58.906Z,6.18
2023-02-02T14:41:52.435Z,6.93
2023-02-02T14:44:19.895Z,5.10
2023-02-02T14:46:49.210Z,7.35
2023-02-02T14:49:24.022Z,12.60
2023-02-02T14:51:55.145Z,5.95
2023-02-02T14:54:26.442Z,7.90
2023-02-02T14:56:57.310Z,4.32
2023-02-02T14:59:28.367Z,10.82
2023-02-02T15:02:02.937Z,5.90
2023-02-02T15:04:31.149Z,7.88
2023-02-02T15:07:38.643Z,9.50
2023-02-02T15:10:06.827Z,8.00
2023-02-02T15:12:36.520Z,6.60
2023-02-02T15:15:18.535Z,13.73
2023-02-02T15:20:21.814Z,4.93
2023-02-02T15:22:53.687Z,11.52
2023-02-02T15:27:56.892Z,6.78
2023-02-02T15:30:25.343Z,4.50
2023-02-02T15:32:54.613Z,8.60
2023-02-02T15:35:24.933Z,5.97
2023-02-02T15:37:55.695Z,2.20
2023-02-02T15:40:25.491Z,6.72
2023-02-02T15:42:55.885Z,3.90
2023-02-02T15:45:43.437Z,5.32
2023-02-02T15:48:22.026Z,5.10
2023-02-02T15:50:54.675Z,5.78
2023-02-02T15:53:25.961Z,6.90
2023-02-02T15:55:54.300Z,4.72
2023-02-02T15:58:27.651Z,4.68
2023-02-02T16:01:00.325Z,5.10
2023-02-02T16:03:33.928Z,6.63
2023-02-02T16:06:01.860Z,4.03
2023-02-02T16:08:34.820Z,3.75
2023-02-02T16:11:04.500Z,4.85
2023-02-02T16:13:33.338Z,6.45
2023-02-02T16:16:02.111Z,3.47
2023-02-02T16:18:31.474Z,3.10
2023-02-02T16:21:00.427Z,6.68
2023-02-02T16:23:30.475Z,4.13
2023-02-02T16:25:59.778Z,6.40
2023-02-02T16:28:27.536Z,6.22
2023-02-02T16:30:55.276Z,2.17
2023-02-02T16:33:39.151Z,5.20
2023-02-02T16:36:25.197Z,4.38
2023-02-02T16:38:54.599Z,1.95
2023-02-02T16:41:30.415Z,2.67
2023-02-02T16:44:31.134Z,5.13
2023-02-02T16:46:59.712Z,4.28
2023-02-02T16:49:29.871Z,3.60
2023-02-02T16:52:12.015Z,2.63
2023-02-02T16:54:40.070Z,2.90
2023-02-02T16:57:07.491Z,4.53
2023-02-02T16:59:35.928Z,2.80
2023-02-02T17:02:05.431Z,4.40
2023-02-02T17:04:35.005Z,5.55
2023-02-02T17:07:07.895Z,3.83
2023-02-02T17:09:37.263Z,4.22
2023-02-02T17:12:14.247Z,6.78
2023-02-02T17:14:53.103Z,6.05
2023-02-02T17:17:20.569Z,4.00
2023-02-02T17:19:49.428Z,3.80
2023-02-02T17:22:18.505Z,6.30
2023-02-02T17:24:47.910Z,4.25
2023-02-02T17:27:17.545Z,7.93
2023-02-02T17:29:45.228Z,6.13
2023-02-02T17:32:13.766Z,8.23
2023-02-02T17:34:41.872Z,7.20
2023-02-02T17:37:11.089Z,5.45
2023-02-02T17:39:38.531Z,9.70
2023-02-02T17:42:06.796Z,8.05
2023-02-02T17:44:34.632Z,9.20
2023-02-02T17:47:02.021Z,6.95
2023-02-02T17:49:29.483Z,9.57
2023-02-02T17:51:57.818Z,13.85
2023-02-02T17:54:26.582Z,14.05
2023-02-02T17:56:54.003Z,7.22
2023-02-02T17:59:21.489Z,9.63
2023-02-02T18:01:49.179Z,7.43
2023-02-02T18:04:16.730Z,10.45
2023-02-02T18:06:44.170Z,12.73
2023-02-02T18:09:11.672Z,9.50
2023-02-02T18:11:42.423Z,12.43
2023-02-02T18:14:10.407Z,8.87
2023-02-02T18:16:37.904Z,9.98
2023-02-02T18:19:05.328Z,12.32
2023-02-02T18:21:33.314Z,13.57
2023-02-02T18:24:00.863Z,9.27
2023-02-02T18:26:28.449Z,9.13
2023-02-02T18:28:57.278Z,13.38
2023-02-02T18:31:25.110Z,8.70
2023-02-02T18:34:01.685Z,9.45
2023-02-02T18:36:29.158Z,8.30
2023-02-02T18:38:58.009Z,9.35
2023-02-02T18:41:25.583Z,8.30
2023-02-02T18:43:55.106Z,11.52
2023-02-02T18:46:23.998Z,8.93
2023-02-02T18:48:52.822Z,11.23
2023-02-02T18:51:21.882Z,8.18
2023-02-02T18:53:50.842Z,10.35
2023-02-02T18:56:18.506Z,8.82
2023-02-02T18:58:46.898Z,10.25
2023-02-02T19:01:16.828Z,10.15
2023-02-02T19:03:49.589Z,11.57
2023-02-02T19:06:35.492Z,10.88
2023-02-02T19:09:02.967Z,11.70
2023-02-02T19:11:36.016Z,10.30
2023-02-02T19:14:03.578Z,11.43
2023-02-02T19:16:34.308Z,10.05
2023-02-02T19:19:09.165Z,4.78
2023-02-02T19:21:37.831Z,13.70
2023-02-02T19:24:07.654Z,9.88
2023-02-02T19:26:39.907Z,9.15
2023-02-02T19:29:15.351Z,12.98
2023-02-02T19:31:43.353Z,14.07
2023-02-02T19:34:15.132Z,9.75
2023-02-02T19:39:17.193Z,8.25
2023-02-02T19:41:44.647Z,9.30
2023-02-02T19:44:16.471Z,12.77
2023-02-02T19:49:17.381Z,10.38
2023-02-02T19:51:46.031Z,12.35
2023-02-02T19:54:27.987Z,8.18
2023-02-02T19:59:26.975Z,9.45
2023-02-02T20:01:55.918Z,9.98
2023-02-02T20:04:24.694Z,9.25
2023-02-02T20:06:59.058Z,12.85
2023-02-02T20:09:31.148Z,7.85
2023-02-02T20:11:58.645Z,13.18
2023-02-02T20:14:30.064Z,13.55
2023-02-02T20:17:02.808Z,9.88
2023-02-02T20:19:35.285Z,8.27
2023-02-02T20:22:03.267Z,8.30
2023-02-02T20:24:36.211Z,9.65
2023-02-02T20:27:09.153Z,5.90
2023-02-02T20:29:39.585Z,6.28
2023-02-02T20:32:09.980Z,11.68
2023-02-02T20:34:42.355Z,9.30
2023-02-02T20:37:17.660Z,9.68
2023-02-02T20:39:47.866Z,10.75
2023-02-02T20:42:15.931Z,8.27
2023-02-02T20:44:43.916Z,8.77
2023-02-02T20:47:11.593Z,12.43
2023-02-02T20:49:41.083Z,15.15
2023-02-02T20:52:11.138Z,11.52
2023-02-02T20:54:39.651Z,13.20
2023-02-02T20:57:07.253Z,12.52
2023-02-02T20:59:34.835Z,12.20
2023-02-02T21:02:02.932Z,9.73
2023-02-02T21:04:30.860Z,11.13
2023-02-02T21:07:00.356Z,12.45
2023-02-02T21:09:28.144Z,13.43
2023-02-02T21:11:55.621Z,11.07
2023-02-02T21:14:23.105Z,9.27
2023-02-02T21:16:50.842Z,15.80
2023-02-02T21:19:18.627Z,10.77
2023-02-02T21:21:46.368Z,9.95
2023-02-02T21:24:15.244Z,13.85
2023-02-02T21:26:42.884Z,17.27
2023-02-02T21:29:10.594Z,16.77
2023-02-02T21:31:40.150Z,10.65
2023-02-02T21:34:08.901Z,10.23
2023-02-02T21:36:38.834Z,12.50
2023-02-02T21:39:13.780Z,11.05
2023-02-02T21:41:42.691Z,9.15
2023-02-02T21:44:13.926Z,9.63
2023-02-02T21:46:41.546Z,9.07
2023-02-02T21:49:19.993Z,14.82
2023-02-02T21:51:47.587Z,13.27
2023-02-02T21:54:20.694Z,15.93
2023-02-02T21:56:49.953Z,12.52
2023-02-02T21:59:19.821Z,13.85
2023-02-02T22:01:48.603Z,20.55
2023-02-02T22:04:21.611Z,14.10
2023-02-02T22:06:50.667Z,18.88
2023-02-02T22:09:23.214Z,17.90
2023-02-02T22:11:58.336Z,18.20
2023-02-02T22:14:28.364Z,14.85
2023-02-02T22:16:58.370Z,13.90
2023-02-02T22:19:28.949Z,17.05
2023-02-02T22:22:10.421Z,15.18
2023-02-02T22:24:37.882Z,12.32
2023-02-02T22:27:13.989Z,16.40
2023-02-02T22:29:41.530Z,13.48
2023-02-02T22:32:08.981Z,19.45
2023-02-02T22:34:36.426Z,15.40
2023-02-02T22:37:03.965Z,17.85
2023-02-02T22:39:31.408Z,13.50
2023-02-02T22:41:58.881Z,13.80
2023-02-02T22:44:27.672Z,17.85
2023-02-02T22:46:55.107Z,14.40
2023-02-02T22:49:22.626Z,13.32
2023-02-02T22:51:50.136Z,19.42
2023-02-02T22:54:17.590Z,18.77
2023-02-02T22:56:45.082Z,18.73
2023-02-02T22:59:12.552Z,18.90
2023-02-02T23:01:41.550Z,13.98
2023-02-02T23:04:09.166Z,19.98
2023-02-02T23:06:36.647Z,21.05
2023-02-02T23:09:04.350Z,17.33
2023-02-02T23:11:31.813Z,13.13
2023-02-02T23:13:59.243Z,17.63
2023-02-02T23:16:26.848Z,17.75
2023-02-02T23:18:55.821Z,16.77
2023-02-02T23:21:23.239Z,19.70
2023-02-02T23:23:50.822Z,10.07
2023-02-02T23:26:18.259Z,17.17
2023-02-02T23:28:46.004Z,16.60
2023-02-02T23:31:13.572Z,19.85
2023-02-02T23:33:41.084Z,14.85
2023-02-02T23:36:10.110Z,18.17
2023-02-02T23:38:37.583Z,21.40
2023-02-02T23:41:05.179Z,18.48
2023-02-02T23:43:32.753Z,17.30
2023-02-02T23:46:00.404Z,15.98
2023-02-02T23:48:27.949Z,15.02
2023-02-02T23:50:55.533Z,12.10
2023-02-02T23:53:24.952Z,16.70
2023-02-02T23:55:52.453Z,20.85
2023-02-02T23:58:20.809Z,15.40
